Buffalo (BUF/KBUF)

Information

Location
Buffalo, NY
Local Time
23:43 / 11:43 pm
GMT Time
03:43 / 3:43 am
Gates
No FAA reported delays
METAR KBUF 260313Z 22005KT 10SM SCT005 SCT020 BKN075 13/12 A2952 RMK AO2 T01330122 $
TAF KBUF 260250Z 2603/2624 VRB03KT 3SM BR OVC008 FM260700 25005KT 1SM BR OVC003 FM261300 26005KT 3SM BR OVC008 FM261700 27008KT P6SM OVC015